Lister — ZDHW6 — position and weather

sailwx.info

Track history (hours):
 
Tides and Currents Weather Stations Pressure Air Temp Water Temp Dewpoint Dewpoint Depression Visibility Wind Speed Wind Dir Waves Ship Positions

Lister

Last reported at 2014-Oct-22 08:04 UTC. Time now 2014-Oct-22 09:48 UTC.
Position N 55°42' E 015°35'.

Length 89 m; draft 4.4 m.

Type: Ship. MMSI: 236381000.

Date/timePositionNaut miles runAvg speedWind from/ knotsBaromVisibWave heightAir tempDewpointWater temp
2014-Oct-22 08:04N 55°42' E 015°35'6 9.7
2014-Oct-22 07:28N 55°39' E 015°26'9 9.7
2014-Oct-22 06:33N 55°34' E 015°13'10 9.7
2014-Oct-22 05:33N 55°30' E 014°58'10 9.6
2014-Oct-22 04:33N 55°25' E 014°43'10 9.5
2014-Oct-22 03:33N 55°18' E 014°31'10 9.6
2014-Oct-22 02:33N 55°11' E 014°20'10 9.5
2014-Oct-22 01:33N 55°11' E 014°03'10 9.6
2014-Oct-22 00:33N 55°11' E 013°46'10 9.6
2014-Oct-21 23:28N 55°13' E 013°28'18 9.7
2014-Oct-21 21:33N 55°15' E 012°56'10 9.5
2014-Oct-21 20:33N 55°18' E 012°40'9 8.8
2014-Oct-21 19:33N 55°26' E 012°40'1010.0
2014-Oct-21 18:33N 55°36' E 012°42'1010.3
2014-Oct-21 17:33N 55°47' E 012°42'7 6.9
2014-Oct-21 16:33N 55°52' E 012°49'0 0.3
2014-Oct-21 15:30N 55°52' E 012°50'0 0.0
2014-Oct-21 14:33N 55°52' E 012°50'0 0.0
2014-Oct-21 13:33N 55°52' E 012°50'0 0.0
2014-Oct-21 12:33N 55°52' E 012°50'0 0.0
2014-Oct-21 11:33N 55°52' E 012°50'0 0.0
2014-Oct-21 10:33N 55°52' E 012°50'0 0.0
2014-Oct-21 09:33N 55°52' E 012°50'0 0.0
2014-Oct-21 08:33N 55°52' E 012°50'0 0.0
2014-Oct-21 07:33N 55°52' E 012°50'0 0.0
2014-Oct-21 06:33N 55°52' E 012°50'0 0.0
2014-Oct-21 05:33N 55°52' E 012°50'0 0.0
2014-Oct-21 04:33N 55°52' E 012°50'0 0.0
2014-Oct-21 03:33N 55°52' E 012°50'0 0.0
2014-Oct-21 02:33N 55°52' E 012°50'0 0.0
2014-Oct-21 01:33N 55°52' E 012°50'0 0.0
2014-Oct-21 00:30N 55°52' E 012°50'0 0.0
2014-Oct-20 23:33N 55°52' E 012°50'0 0.0
2014-Oct-20 22:33N 55°52' E 012°50'0 0.0
2014-Oct-20 21:27N 55°52' E 012°50'0 0.0
2014-Oct-20 20:30N 55°52' E 012°50'0 0.0
2014-Oct-20 19:33N 55°52' E 012°50'0 0.0
2014-Oct-20 18:33N 55°52' E 012°50'0 0.0
2014-Oct-20 17:33N 55°52' E 012°50'0 0.0
2014-Oct-20 16:33N 55°52' E 012°50'0 0.0
2014-Oct-20 15:33N 55°52' E 012°50'0 0.0
2014-Oct-20 14:33N 55°52' E 012°50'0 0.0
2014-Oct-20 13:33N 55°52' E 012°50'0 0.0
2014-Oct-20 12:33N 55°52' E 012°50'0 0.0
2014-Oct-20 11:33N 55°52' E 012°50'0 0.2
2014-Oct-20 10:32N 55°52' E 012°50'0 0.0
2014-Oct-20 09:32N 55°52' E 012°50'0 0.0
2014-Oct-20 08:32N 55°52' E 012°50'0 0.0
2014-Oct-20 07:32N 55°52' E 012°50'0 0.0
2014-Oct-20 06:29N 55°52' E 012°50'0 0.0
2014-Oct-20 05:29N 55°52' E 012°50'0 0.0
2014-Oct-20 04:32N 55°52' E 012°50'0 0.0
2014-Oct-20 03:32N 55°52' E 012°50'0 0.0
2014-Oct-20 02:32N 55°52' E 012°50'0 0.0
2014-Oct-20 01:32N 55°52' E 012°50'0 0.0
2014-Oct-20 00:32N 55°52' E 012°50'0 0.0
2014-Oct-19 23:32N 55°52' E 012°50'0 0.0
2014-Oct-19 22:32N 55°52' E 012°50'0 0.0
2014-Oct-19 21:29N 55°52' E 012°50'0 0.0
2014-Oct-19 20:29N 55°52' E 012°50'0 0.0
2014-Oct-19 19:32N 55°52' E 012°50'0 0.0
2014-Oct-19 18:32N 55°52' E 012°50'0 0.0
2014-Oct-19 17:32N 55°52' E 012°50'0 0.0
2014-Oct-19 16:32N 55°52' E 012°50'0 0.0
2014-Oct-19 15:32N 55°52' E 012°50'0 0.0
2014-Oct-19 14:32N 55°52' E 012°50'0 0.0
2014-Oct-19 13:32N 55°52' E 012°50'0 0.0
2014-Oct-19 12:32N 55°52' E 012°50'0 0.0
2014-Oct-19 11:29N 55°52' E 012°50'0 0.0
2014-Oct-19 10:29N 55°52' E 012°50'0 0.0
2014-Oct-19 09:32N 55°52' E 012°50'0 0.0
2014-Oct-19 08:32N 55°52' E 012°50'0 0.0
2014-Oct-19 07:32N 55°52' E 012°50'0 0.0
2014-Oct-19 06:32N 55°52' E 012°50'0 0.0
2014-Oct-19 05:32N 55°52' E 012°50'0 0.0
2014-Oct-19 04:32N 55°52' E 012°50'0 0.0
2014-Oct-19 03:32N 55°52' E 012°50'0 0.0
2014-Oct-19 02:32N 55°52' E 012°50'0 0.0
2014-Oct-19 01:29N 55°52' E 012°50'0 0.0
2014-Oct-19 00:32N 55°52' E 012°50'0 0.0
2014-Oct-18 23:32N 55°52' E 012°50'0 0.0
2014-Oct-18 22:32N 55°52' E 012°50'0 0.0
2014-Oct-18 21:32N 55°52' E 012°50'0 0.0
2014-Oct-18 20:32N 55°52' E 012°50'0 0.0
2014-Oct-18 19:32N 55°52' E 012°50'0 0.0
2014-Oct-18 18:32N 55°52' E 012°50'0 0.0
2014-Oct-18 17:32N 55°52' E 012°50'0 0.0
2014-Oct-18 16:32N 55°52' E 012°50'0 0.0
2014-Oct-18 15:32N 55°52' E 012°50'0 0.0
2014-Oct-18 14:32N 55°52' E 012°50'0 0.0
2014-Oct-18 13:32N 55°52' E 012°50'0 0.0
2014-Oct-18 12:32N 55°52' E 012°50'0 0.0
2014-Oct-18 11:32N 55°52' E 012°50'3 3.1
2014-Oct-18 10:34N 55°52' E 012°44'1110.8
2014-Oct-18 09:34N 55°41' E 012°41'1110.7
2014-Oct-18 08:34N 55°30' E 012°43'1110.5
2014-Oct-18 07:33N 55°20' E 012°41'1010.0
2014-Oct-18 06:33N 55°16' E 012°57'10 9.8
2014-Oct-18 05:33N 55°16' E 013°14'4010.0
2014-Oct-18 01:33N 55°19' E 014°24'1010.5
2014-Oct-18 00:33N 55°26' E 014°36'1110.4
2014-Oct-17 23:33N 55°31' E 014°53'1110.5
2014-Oct-17 22:30N 55°36' E 015°10'  
2014-Oct-14 14:33N 58°37' E 016°58'1111.3
2014-Oct-14 13:33N 58°38' E 016°37'1010.2
2014-Oct-14 12:33N 58°38' E 016°17'3 2.6
2014-Oct-14 11:30N 58°36' E 016°13'0 0.0
2014-Oct-14 10:12N 58°36' E 016°13'0 0.0
2014-Oct-14 08:06N 58°36' E 016°13'0 0.0
2014-Oct-14 07:30N 58°36' E 016°13'0 0.0
2014-Oct-14 06:06N 58°36' E 016°13'0 0.0
2014-Oct-14 05:30N 58°36' E 016°13'0 0.0
2014-Oct-14 04:30N 58°36' E 016°13'0 0.0
2014-Oct-14 03:18N 58°36' E 016°13'0 0.0
2014-Oct-14 02:12N 58°36' E 016°13'0 0.0
2014-Oct-14 01:30N 58°36' E 016°13'0 0.0
2014-Oct-14 00:24N 58°36' E 016°13'0 0.0
2014-Oct-13 23:18N 58°36' E 016°13'0 0.0
2014-Oct-13 22:06N 58°36' E 016°13'0 0.0
2014-Oct-13 20:24N 58°36' E 016°13'0 0.0
2014-Oct-13 19:30N 58°36' E 016°13'0 0.0
2014-Oct-13 18:18N 58°36' E 016°13'0 0.0
2014-Oct-13 17:30N 58°36' E 016°13'0 0.0
2014-Oct-13 16:30N 58°36' E 016°13'0 0.0
2014-Oct-13 14:24N 58°36' E 016°13'0 0.0
2014-Oct-13 13:18N 58°36' E 016°13'0 0.0
2014-Oct-13 12:18N 58°36' E 016°13'0 0.0
2014-Oct-13 11:18N 58°36' E 016°13'0 0.0
2014-Oct-13 09:30N 58°36' E 016°13'0 0.0
2014-Oct-13 08:18N 58°36' E 016°13'0 0.0
2014-Oct-13 07:30N 58°36' E 016°13'0 0.0
2014-Oct-13 06:06N 58°36' E 016°13'0 0.0
2014-Oct-13 02:06N 58°36' E 016°13'0 0.0
2014-Oct-13 01:30N 58°36' E 016°13'0 0.0
2014-Oct-13 00:12N 58°36' E 016°13'0 0.0
2014-Oct-12 23:06N 58°36' E 016°13'0 0.0
2014-Oct-12 22:30N 58°36' E 016°13'0 0.0
2014-Oct-12 18:24N 58°36' E 016°13'0 0.0
2014-Oct-12 17:17N 58°36' E 016°13'1 1.4
2014-Oct-12 16:33N 58°37' E 016°14'8 7.8
2014-Oct-12 15:33N 58°39' E 016°28'1010.2
2014-Oct-12 14:33N 58°37' E 016°47'1010.4
2014-Oct-12 13:33N 58°38' E 017°07'  
Track history (hours):
 
Tides and Currents Weather Stations Pressure Air Temp Water Temp Dewpoint Dewpoint Depression Visibility Wind Speed Wind Dir Waves Ship Positions

Lister

Last reported at 2014-Oct-22 08:04 UTC. Time now 2014-Oct-22 09:48 UTC.
Position N 55°42' E 015°35'.

Length 89 m; draft 4.4 m.

Type: Ship. MMSI: 236381000.

Date/timePositionNaut miles runAvg speedWind from/ knotsBaromVisibWave heightAir tempDewpointWater temp
2014-Oct-22 08:04N 55°42' E 015°35'6 9.7
2014-Oct-22 07:28N 55°39' E 015°26'9 9.7
2014-Oct-22 06:33N 55°34' E 015°13'10 9.7
2014-Oct-22 05:33N 55°30' E 014°58'10 9.6
2014-Oct-22 04:33N 55°25' E 014°43'10 9.5
2014-Oct-22 03:33N 55°18' E 014°31'10 9.6
2014-Oct-22 02:33N 55°11' E 014°20'10 9.5
2014-Oct-22 01:33N 55°11' E 014°03'10 9.6
2014-Oct-22 00:33N 55°11' E 013°46'10 9.6
2014-Oct-21 23:28N 55°13' E 013°28'18 9.7
2014-Oct-21 21:33N 55°15' E 012°56'10 9.5
2014-Oct-21 20:33N 55°18' E 012°40'9 8.8
2014-Oct-21 19:33N 55°26' E 012°40'1010.0
2014-Oct-21 18:33N 55°36' E 012°42'1010.3
2014-Oct-21 17:33N 55°47' E 012°42'7 6.9
2014-Oct-21 16:33N 55°52' E 012°49'0 0.3
2014-Oct-21 15:30N 55°52' E 012°50'0 0.0
2014-Oct-21 14:33N 55°52' E 012°50'0 0.0
2014-Oct-21 13:33N 55°52' E 012°50'0 0.0
2014-Oct-21 12:33N 55°52' E 012°50'0 0.0
2014-Oct-21 11:33N 55°52' E 012°50'0 0.0
2014-Oct-21 10:33N 55°52' E 012°50'0 0.0
2014-Oct-21 09:33N 55°52' E 012°50'0 0.0
2014-Oct-21 08:33N 55°52' E 012°50'0 0.0
2014-Oct-21 07:33N 55°52' E 012°50'0 0.0
2014-Oct-21 06:33N 55°52' E 012°50'0 0.0
2014-Oct-21 05:33N 55°52' E 012°50'0 0.0
2014-Oct-21 04:33N 55°52' E 012°50'0 0.0
2014-Oct-21 03:33N 55°52' E 012°50'0 0.0
2014-Oct-21 02:33N 55°52' E 012°50'0 0.0
2014-Oct-21 01:33N 55°52' E 012°50'0 0.0
2014-Oct-21 00:30N 55°52' E 012°50'0 0.0
2014-Oct-20 23:33N 55°52' E 012°50'0 0.0
2014-Oct-20 22:33N 55°52' E 012°50'0 0.0
2014-Oct-20 21:27N 55°52' E 012°50'0 0.0
2014-Oct-20 20:30N 55°52' E 012°50'0 0.0
2014-Oct-20 19:33N 55°52' E 012°50'0 0.0
2014-Oct-20 18:33N 55°52' E 012°50'0 0.0
2014-Oct-20 17:33N 55°52' E 012°50'0 0.0
2014-Oct-20 16:33N 55°52' E 012°50'0 0.0
2014-Oct-20 15:33N 55°52' E 012°50'0 0.0
2014-Oct-20 14:33N 55°52' E 012°50'0 0.0
2014-Oct-20 13:33N 55°52' E 012°50'0 0.0
2014-Oct-20 12:33N 55°52' E 012°50'0 0.0
2014-Oct-20 11:33N 55°52' E 012°50'0 0.2
2014-Oct-20 10:32N 55°52' E 012°50'0 0.0
2014-Oct-20 09:32N 55°52' E 012°50'0 0.0
2014-Oct-20 08:32N 55°52' E 012°50'0 0.0
2014-Oct-20 07:32N 55°52' E 012°50'0 0.0
2014-Oct-20 06:29N 55°52' E 012°50'0 0.0
2014-Oct-20 05:29N 55°52' E 012°50'0 0.0
2014-Oct-20 04:32N 55°52' E 012°50'0 0.0
2014-Oct-20 03:32N 55°52' E 012°50'0 0.0
2014-Oct-20 02:32N 55°52' E 012°50'0 0.0
2014-Oct-20 01:32N 55°52' E 012°50'0 0.0
2014-Oct-20 00:32N 55°52' E 012°50'0 0.0
2014-Oct-19 23:32N 55°52' E 012°50'0 0.0
2014-Oct-19 22:32N 55°52' E 012°50'0 0.0
2014-Oct-19 21:29N 55°52' E 012°50'0 0.0
2014-Oct-19 20:29N 55°52' E 012°50'0 0.0
2014-Oct-19 19:32N 55°52' E 012°50'0 0.0
2014-Oct-19 18:32N 55°52' E 012°50'0 0.0
2014-Oct-19 17:32N 55°52' E 012°50'0 0.0
2014-Oct-19 16:32N 55°52' E 012°50'0 0.0
2014-Oct-19 15:32N 55°52' E 012°50'0 0.0
2014-Oct-19 14:32N 55°52' E 012°50'0 0.0
2014-Oct-19 13:32N 55°52' E 012°50'0 0.0
2014-Oct-19 12:32N 55°52' E 012°50'0 0.0
2014-Oct-19 11:29N 55°52' E 012°50'0 0.0
2014-Oct-19 10:29N 55°52' E 012°50'0 0.0
2014-Oct-19 09:32N 55°52' E 012°50'0 0.0
2014-Oct-19 08:32N 55°52' E 012°50'0 0.0
2014-Oct-19 07:32N 55°52' E 012°50'0 0.0
2014-Oct-19 06:32N 55°52' E 012°50'0 0.0
2014-Oct-19 05:32N 55°52' E 012°50'0 0.0
2014-Oct-19 04:32N 55°52' E 012°50'0 0.0
2014-Oct-19 03:32N 55°52' E 012°50'0 0.0
2014-Oct-19 02:32N 55°52' E 012°50'0 0.0
2014-Oct-19 01:29N 55°52' E 012°50'0 0.0
2014-Oct-19 00:32N 55°52' E 012°50'0 0.0
2014-Oct-18 23:32N 55°52' E 012°50'0 0.0
2014-Oct-18 22:32N 55°52' E 012°50'0 0.0
2014-Oct-18 21:32N 55°52' E 012°50'0 0.0
2014-Oct-18 20:32N 55°52' E 012°50'0 0.0
2014-Oct-18 19:32N 55°52' E 012°50'0 0.0
2014-Oct-18 18:32N 55°52' E 012°50'0 0.0
2014-Oct-18 17:32N 55°52' E 012°50'0 0.0
2014-Oct-18 16:32N 55°52' E 012°50'0 0.0
2014-Oct-18 15:32N 55°52' E 012°50'0 0.0
2014-Oct-18 14:32N 55°52' E 012°50'0 0.0
2014-Oct-18 13:32N 55°52' E 012°50'0 0.0
2014-Oct-18 12:32N 55°52' E 012°50'0 0.0
2014-Oct-18 11:32N 55°52' E 012°50'3 3.1
2014-Oct-18 10:34N 55°52' E 012°44'1110.8
2014-Oct-18 09:34N 55°41' E 012°41'1110.7
2014-Oct-18 08:34N 55°30' E 012°43'1110.5
2014-Oct-18 07:33N 55°20' E 012°41'1010.0
2014-Oct-18 06:33N 55°16' E 012°57'10 9.8
2014-Oct-18 05:33N 55°16' E 013°14'4010.0
2014-Oct-18 01:33N 55°19' E 014°24'1010.5
2014-Oct-18 00:33N 55°26' E 014°36'1110.4
2014-Oct-17 23:33N 55°31' E 014°53'1110.5
2014-Oct-17 22:30N 55°36' E 015°10'  
2014-Oct-14 14:33N 58°37' E 016°58'1111.3
2014-Oct-14 13:33N 58°38' E 016°37'1010.2
2014-Oct-14 12:33N 58°38' E 016°17'3 2.6
2014-Oct-14 11:30N 58°36' E 016°13'0 0.0
2014-Oct-14 10:12N 58°36' E 016°13'0 0.0
2014-Oct-14 08:06N 58°36' E 016°13'0 0.0
2014-Oct-14 07:30N 58°36' E 016°13'0 0.0
2014-Oct-14 06:06N 58°36' E 016°13'0 0.0
2014-Oct-14 05:30N 58°36' E 016°13'0 0.0
2014-Oct-14 04:30N 58°36' E 016°13'0 0.0
2014-Oct-14 03:18N 58°36' E 016°13'0 0.0
2014-Oct-14 02:12N 58°36' E 016°13'0 0.0
2014-Oct-14 01:30N 58°36' E 016°13'0 0.0
2014-Oct-14 00:24N 58°36' E 016°13'0 0.0
2014-Oct-13 23:18N 58°36' E 016°13'0 0.0
2014-Oct-13 22:06N 58°36' E 016°13'0 0.0
2014-Oct-13 20:24N 58°36' E 016°13'0 0.0
2014-Oct-13 19:30N 58°36' E 016°13'0 0.0
2014-Oct-13 18:18N 58°36' E 016°13'0 0.0
2014-Oct-13 17:30N 58°36' E 016°13'0 0.0
2014-Oct-13 16:30N 58°36' E 016°13'0 0.0
2014-Oct-13 14:24N 58°36' E 016°13'0 0.0
2014-Oct-13 13:18N 58°36' E 016°13'0 0.0
2014-Oct-13 12:18N 58°36' E 016°13'0 0.0
2014-Oct-13 11:18N 58°36' E 016°13'0 0.0
2014-Oct-13 09:30N 58°36' E 016°13'0 0.0
2014-Oct-13 08:18N 58°36' E 016°13'0 0.0
2014-Oct-13 07:30N 58°36' E 016°13'0 0.0
2014-Oct-13 06:06N 58°36' E 016°13'0 0.0
2014-Oct-13 02:06N 58°36' E 016°13'0 0.0
2014-Oct-13 01:30N 58°36' E 016°13'0 0.0
2014-Oct-13 00:12N 58°36' E 016°13'0 0.0
2014-Oct-12 23:06N 58°36' E 016°13'0 0.0
2014-Oct-12 22:30N 58°36' E 016°13'0 0.0
2014-Oct-12 18:24N 58°36' E 016°13'0 0.0
2014-Oct-12 17:17N 58°36' E 016°13'1 1.4
2014-Oct-12 16:33N 58°37' E 016°14'8 7.8
2014-Oct-12 15:33N 58°39' E 016°28'1010.2
2014-Oct-12 14:33N 58°37' E 016°47'1010.4
2014-Oct-12 13:33N 58°38' E 017°07'  

Dump ship's entire track history